Rosa Maersk — OVST2 — position and weather

sailwx.info

Track history (hours):
 
Tides and Currents Weather Stations Pressure Air Temp Water Temp Dewpoint Dewpoint Depression Visibility Wind Speed Wind Dir Waves Ship Positions

Rosa Maersk

Last reported at 2017-Jan-16 06:33 UTC. Time now 2017-Jan-23 08:41 UTC.
Position N 36°17' E 017°47'.

Length 172 m; draft 11.7 m.

Type: Ship. MMSI: 220288000.

Date/timePositionNaut miles runAvg speedWind from/ knotsBaromVisibWave heightAir tempDewpointWater temp
2017-Jan-16 06:33N 36°17' E 017°47'1212.0
2017-Jan-16 05:33N 36°18' E 017°33'1212.1
2017-Jan-16 04:33N 36°19' E 017°18'13211.9
2017-Jan-15 17:33N 36°27' E 014°35'1211.7
2017-Jan-15 16:33N 36°31' E 014°21'1211.8
2017-Jan-15 15:33N 36°35' E 014°07'1411.6
2017-Jan-15 14:22N 36°39' E 013°51'  
2017-Jan-12 08:20N 36°00' W 005°12'1013.0
2017-Jan-12 07:34N 35°58' W 005°24'2014.0
2017-Jan-12 06:08N 35°55' W 005°48'287 9.9
2017-Jan-11 01:04N 39°11' W 010°12'  
2017-Jan-08 12:33N 49°43' W 003°38'1211.5
2017-Jan-08 11:33N 49°49' W 003°22'1312.5
2017-Jan-08 10:33N 49°55' W 003°05'1313.3
2017-Jan-08 09:33N 50°00' W 002°46'5112.8
2017-Jan-08 05:34N 50°14' W 001°30'4110.2
2017-Jan-08 01:33N 50°25' W 000°28'1212.0
2017-Jan-08 00:34N 50°28' W 000°10'1312.8
2017-Jan-07 23:34N 50°32' E 000°10'4912.1
2017-Jan-07 19:32N 50°57' E 001°16'1010.1
2017-Jan-07 18:34N 51°04' E 001°27'1110.5
2017-Jan-07 17:34N 51°10' E 001°40'1211.6
2017-Jan-07 16:34N 51°19' E 001°51'1010.3
2017-Jan-07 15:33N 51°23' E 002°07'1211.6
2017-Jan-07 14:33N 51°22' E 002°25'1212.6
2017-Jan-07 13:34N 51°24' E 002°45'1211.8
2017-Jan-07 12:33N 51°24' E 003°04'1413.7
2017-Jan-07 11:33N 51°25' E 003°26'1010.1
2017-Jan-07 10:33N 51°25' E 003°42'10 9.5
2017-Jan-07 09:33N 51°24' E 003°57'8 7.8
2017-Jan-07 08:33N 51°23' E 004°10'6 2.9
2017-Jan-07 06:30N 51°20' E 004°18'4 4.3
2017-Jan-07 05:34N 51°17' E 004°21'1 0.5
2017-Jan-07 04:32N 51°16' E 004°21'0 0.0
2017-Jan-07 03:32N 51°16' E 004°21'0 0.0
2017-Jan-07 02:32N 51°16' E 004°21'0 0.0
2017-Jan-07 01:32N 51°16' E 004°21'0 0.0
2017-Jan-07 00:29N 51°16' E 004°21'0 0.0
2017-Jan-06 23:29N 51°16' E 004°21'0 0.0
2017-Jan-06 22:32N 51°16' E 004°21'0 0.0
2017-Jan-06 21:32N 51°16' E 004°21'0 0.0
2017-Jan-06 20:29N 51°16' E 004°21'0 0.0
2017-Jan-06 19:32N 51°16' E 004°21'0 0.0
2017-Jan-06 18:32N 51°16' E 004°21'0 0.0
2017-Jan-06 17:16N 51°16' E 004°21'0 0.0
2017-Jan-06 16:28N 51°16' E 004°21'0 0.0
2017-Jan-06 15:16N 51°16' E 004°21'0 0.0
2017-Jan-06 14:31N 51°16' E 004°21'0 0.0
2017-Jan-06 13:10N 51°16' E 004°21'0 0.0
2017-Jan-06 12:25N 51°16' E 004°21'0 0.0
2017-Jan-06 11:31N 51°16' E 004°21'0 0.0
2017-Jan-06 10:31N 51°16' E 004°21'0 0.0
2017-Jan-06 09:28N 51°16' E 004°21'0 0.0
2017-Jan-06 08:28N 51°16' E 004°21'0 0.0
2017-Jan-06 07:31N 51°16' E 004°21'  
Track history (hours):
 
Tides and Currents Weather Stations Pressure Air Temp Water Temp Dewpoint Dewpoint Depression Visibility Wind Speed Wind Dir Waves Ship Positions

Rosa Maersk

Last reported at 2017-Jan-16 06:33 UTC. Time now 2017-Jan-23 08:41 UTC.
Position N 36°17' E 017°47'.

Length 172 m; draft 11.7 m.

Type: Ship. MMSI: 220288000.

Date/timePositionNaut miles runAvg speedWind from/ knotsBaromVisibWave heightAir tempDewpointWater temp
2017-Jan-16 06:33N 36°17' E 017°47'1212.0
2017-Jan-16 05:33N 36°18' E 017°33'1212.1
2017-Jan-16 04:33N 36°19' E 017°18'13211.9
2017-Jan-15 17:33N 36°27' E 014°35'1211.7
2017-Jan-15 16:33N 36°31' E 014°21'1211.8
2017-Jan-15 15:33N 36°35' E 014°07'1411.6
2017-Jan-15 14:22N 36°39' E 013°51'  
2017-Jan-12 08:20N 36°00' W 005°12'1013.0
2017-Jan-12 07:34N 35°58' W 005°24'2014.0
2017-Jan-12 06:08N 35°55' W 005°48'287 9.9
2017-Jan-11 01:04N 39°11' W 010°12'  
2017-Jan-08 12:33N 49°43' W 003°38'1211.5
2017-Jan-08 11:33N 49°49' W 003°22'1312.5
2017-Jan-08 10:33N 49°55' W 003°05'1313.3
2017-Jan-08 09:33N 50°00' W 002°46'5112.8
2017-Jan-08 05:34N 50°14' W 001°30'4110.2
2017-Jan-08 01:33N 50°25' W 000°28'1212.0
2017-Jan-08 00:34N 50°28' W 000°10'1312.8
2017-Jan-07 23:34N 50°32' E 000°10'4912.1
2017-Jan-07 19:32N 50°57' E 001°16'1010.1
2017-Jan-07 18:34N 51°04' E 001°27'1110.5
2017-Jan-07 17:34N 51°10' E 001°40'1211.6
2017-Jan-07 16:34N 51°19' E 001°51'1010.3
2017-Jan-07 15:33N 51°23' E 002°07'1211.6
2017-Jan-07 14:33N 51°22' E 002°25'1212.6
2017-Jan-07 13:34N 51°24' E 002°45'1211.8
2017-Jan-07 12:33N 51°24' E 003°04'1413.7
2017-Jan-07 11:33N 51°25' E 003°26'1010.1
2017-Jan-07 10:33N 51°25' E 003°42'10 9.5
2017-Jan-07 09:33N 51°24' E 003°57'8 7.8
2017-Jan-07 08:33N 51°23' E 004°10'6 2.9
2017-Jan-07 06:30N 51°20' E 004°18'4 4.3
2017-Jan-07 05:34N 51°17' E 004°21'1 0.5
2017-Jan-07 04:32N 51°16' E 004°21'0 0.0
2017-Jan-07 03:32N 51°16' E 004°21'0 0.0
2017-Jan-07 02:32N 51°16' E 004°21'0 0.0
2017-Jan-07 01:32N 51°16' E 004°21'0 0.0
2017-Jan-07 00:29N 51°16' E 004°21'0 0.0
2017-Jan-06 23:29N 51°16' E 004°21'0 0.0
2017-Jan-06 22:32N 51°16' E 004°21'0 0.0
2017-Jan-06 21:32N 51°16' E 004°21'0 0.0
2017-Jan-06 20:29N 51°16' E 004°21'0 0.0
2017-Jan-06 19:32N 51°16' E 004°21'0 0.0
2017-Jan-06 18:32N 51°16' E 004°21'0 0.0
2017-Jan-06 17:16N 51°16' E 004°21'0 0.0
2017-Jan-06 16:28N 51°16' E 004°21'0 0.0
2017-Jan-06 15:16N 51°16' E 004°21'0 0.0
2017-Jan-06 14:31N 51°16' E 004°21'0 0.0
2017-Jan-06 13:10N 51°16' E 004°21'0 0.0
2017-Jan-06 12:25N 51°16' E 004°21'0 0.0
2017-Jan-06 11:31N 51°16' E 004°21'0 0.0
2017-Jan-06 10:31N 51°16' E 004°21'0 0.0
2017-Jan-06 09:28N 51°16' E 004°21'0 0.0
2017-Jan-06 08:28N 51°16' E 004°21'0 0.0
2017-Jan-06 07:31N 51°16' E 004°21'  

Dump ship's entire track history